createdAt,value
2018-04-14T00:00:29.710Z,15.63
2018-04-14T00:02:57.322Z,10.70
2018-04-14T00:05:24.917Z,6.33
2018-04-14T00:07:52.646Z,9.33
2018-04-14T00:10:20.233Z,6.27
2018-04-14T00:12:47.822Z,5.13
2018-04-14T00:15:15.431Z,7.20
2018-04-14T00:17:43.023Z,11.97
2018-04-14T00:20:10.864Z,12.33
2018-04-14T00:22:38.450Z,13.77
2018-04-14T00:25:06.041Z,10.30
2018-04-14T00:27:33.666Z,8.40
2018-04-14T00:30:01.255Z,8.07
2018-04-14T00:32:29.163Z,7.10
2018-04-14T00:34:56.745Z,17.87
2018-04-14T00:37:24.335Z,11.83
2018-04-14T00:39:51.947Z,8.93
2018-04-14T00:42:19.553Z,27.20
2018-04-14T00:44:47.386Z,73.37
2018-04-14T00:47:15.017Z,184.80
2018-04-14T00:49:42.614Z,157.73
2018-04-14T00:52:10.231Z,73.13
2018-04-14T00:54:37.830Z,81.27
2018-04-14T00:57:06.486Z,242.43
2018-04-14T00:59:34.090Z,225.23
2018-04-14T01:02:01.738Z,148.43
2018-04-14T01:04:29.363Z,432.50
2018-04-14T01:06:56.963Z,219.00
2018-04-14T01:09:24.823Z,301.10
2018-04-14T01:11:52.542Z,253.00
2018-04-14T01:14:20.131Z,125.87
2018-04-14T01:16:47.749Z,80.37
2018-04-14T01:19:15.435Z,69.23
2018-04-14T01:21:43.058Z,42.10
2018-04-14T01:24:10.667Z,60.27
2018-04-14T01:26:38.666Z,77.43
2018-04-14T01:29:06.261Z,52.57
2018-04-14T01:31:33.857Z,82.73
2018-04-14T01:34:01.472Z,95.53
2018-04-14T01:36:29.069Z,90.77
2018-04-14T01:38:56.686Z,68.27
2018-04-14T01:41:24.293Z,58.00
2018-04-14T01:43:51.943Z,24.80
2018-04-14T01:46:19.538Z,13.60
2018-04-14T01:48:47.127Z,13.43
2018-04-14T01:51:14.751Z,46.80
2018-04-14T01:53:42.345Z,50.67
2018-04-14T01:56:09.978Z,33.97
2018-04-14T01:58:37.571Z,11.47
2018-04-14T02:01:05.200Z,18.63
2018-04-14T02:03:32.792Z,35.47
2018-04-14T02:06:00.380Z,27.43
2018-04-14T02:08:28.001Z,37.43
2018-04-14T02:10:55.613Z,36.33
2018-04-14T02:13:23.227Z,44.60
2018-04-14T02:15:50.822Z,15.17
2018-04-14T02:18:18.665Z,68.00
2018-04-14T02:20:46.278Z,100.27
2018-04-14T02:23:13.868Z,59.80
2018-04-14T02:25:41.480Z,33.67
2018-04-14T02:28:09.075Z,26.60
2018-04-14T02:30:36.702Z,30.03
2018-04-14T02:33:04.302Z,25.77
2018-04-14T02:35:32.084Z,14.00
2018-04-14T02:37:59.681Z,8.27
2018-04-14T02:40:27.300Z,63.13
2018-04-14T02:42:54.937Z,18.87
2018-04-14T02:45:22.538Z,38.27
2018-04-14T02:47:50.156Z,23.40
2018-04-14T02:50:18.482Z,22.40
2018-04-14T02:52:46.356Z,11.20
2018-04-14T02:55:13.958Z,22.93
2018-04-14T02:57:41.555Z,14.53
2018-04-14T03:00:09.171Z,6.77
2018-04-14T03:02:36.780Z,11.70
2018-04-14T03:05:04.407Z,24.53
2018-04-14T03:07:32.026Z,31.43
2018-04-14T03:09:59.767Z,22.17
2018-04-14T03:12:27.520Z,9.27
2018-04-14T03:14:55.116Z,12.57
2018-04-14T03:17:22.726Z,17.20
2018-04-14T03:19:50.372Z,12.77
2018-04-14T03:22:18.033Z,8.93
2018-04-14T03:24:45.620Z,8.43
2018-04-14T03:27:13.418Z,6.43
2018-04-14T03:29:41.003Z,6.57
2018-04-14T03:32:08.587Z,7.00
2018-04-14T03:34:36.187Z,7.60
2018-04-14T03:37:03.771Z,8.83
2018-04-14T03:39:31.386Z,6.50
2018-04-14T03:41:58.975Z,7.33
2018-04-14T03:44:26.822Z,7.40
2018-04-14T03:46:54.408Z,7.23
2018-04-14T03:49:22.069Z,7.87
2018-04-14T03:51:49.733Z,7.07
2018-04-14T03:54:17.393Z,7.27
2018-04-14T03:56:45.056Z,6.50
2018-04-14T03:59:12.637Z,7.63
2018-04-14T04:01:40.375Z,5.33
2018-04-14T04:04:07.963Z,6.10
2018-04-14T04:06:35.552Z,7.47
2018-04-14T04:09:03.186Z,7.00
2018-04-14T04:11:30.826Z,7.17
2018-04-14T04:13:58.438Z,7.10
2018-04-14T04:16:26.031Z,7.87
2018-04-14T04:19:05.678Z,7.30
2018-04-14T04:21:45.158Z,7.33
2018-04-14T04:24:24.558Z,8.13
2018-04-14T04:26:52.158Z,14.60
2018-04-14T04:29:21.389Z,8.87
2018-04-14T04:31:49.043Z,6.40
2018-04-14T04:34:16.643Z,7.87
2018-04-14T04:36:44.246Z,10.10
2018-04-14T04:39:11.838Z,9.70
2018-04-14T04:41:39.462Z,10.23
2018-04-14T04:44:07.050Z,12.60
2018-04-14T04:46:34.638Z,10.73
2018-04-14T04:49:02.256Z,14.20
2018-04-14T04:51:29.848Z,11.00
2018-04-14T04:53:57.463Z,12.20
2018-04-14T04:56:25.050Z,14.03
2018-04-14T04:58:52.869Z,10.17
2018-04-14T05:01:20.460Z,10.53
2018-04-14T05:03:48.050Z,15.80
2018-04-14T05:06:15.666Z,14.33
2018-04-14T05:08:43.317Z,13.73
2018-04-14T05:11:10.932Z,15.77
2018-04-14T05:13:38.531Z,22.73
2018-04-14T05:16:06.119Z,13.50
2018-04-14T05:18:33.736Z,14.13
2018-04-14T05:21:01.323Z,12.97
2018-04-14T05:23:29.048Z,17.20
2018-04-14T05:25:56.635Z,15.07
2018-04-14T05:28:24.222Z,11.90
2018-04-14T05:30:51.842Z,15.07
2018-04-14T05:33:19.430Z,15.73
2018-04-14T05:35:47.059Z,16.30
2018-04-14T05:38:14.651Z,18.90
2018-04-14T05:40:42.252Z,16.30
2018-04-14T05:43:09.853Z,15.17
2018-04-14T05:45:37.450Z,15.83
2018-04-14T05:48:05.072Z,15.57
2018-04-14T05:50:32.665Z,14.83
2018-04-14T05:53:00.306Z,17.47
2018-04-14T05:55:27.902Z,16.83
2018-04-14T05:57:55.505Z,17.10
2018-04-14T06:00:23.125Z,16.70
2018-04-14T06:02:50.726Z,20.53
2018-04-14T06:05:18.352Z,19.20
2018-04-14T06:07:45.955Z,20.30
2018-04-14T06:10:13.589Z,28.70
2018-04-14T06:12:41.313Z,19.50
2018-04-14T06:15:08.934Z,19.77
2018-04-14T06:17:36.557Z,19.77
2018-04-14T06:20:04.157Z,19.07
2018-04-14T06:22:31.789Z,20.90
2018-04-14T06:24:59.390Z,22.37
2018-04-14T06:27:27.590Z,21.67
2018-04-14T06:29:55.191Z,25.70
2018-04-14T06:32:22.794Z,26.20
2018-04-14T06:34:50.415Z,23.30
2018-04-14T06:37:18.026Z,23.20
2018-04-14T06:39:45.662Z,24.87
2018-04-14T06:42:13.286Z,28.20
2018-04-14T06:44:41.121Z,30.33
2018-04-14T06:47:08.718Z,24.87
2018-04-14T06:49:36.320Z,23.93
2018-04-14T06:52:03.948Z,22.80
2018-04-14T06:54:31.557Z,23.40
2018-04-14T06:56:59.175Z,23.60
2018-04-14T06:59:26.799Z,28.73
2018-04-14T07:01:54.609Z,30.27
2018-04-14T07:04:22.224Z,28.00
2018-04-14T07:06:49.826Z,26.03
2018-04-14T07:09:17.446Z,25.70
2018-04-14T07:11:45.048Z,22.87
2018-04-14T07:14:12.670Z,23.90
2018-04-14T07:16:40.266Z,25.67
2018-04-14T07:19:08.106Z,22.93
2018-04-14T07:21:35.708Z,20.40
2018-04-14T07:24:03.317Z,23.50
2018-04-14T07:26:30.941Z,21.97
2018-04-14T07:28:58.542Z,24.33
2018-04-14T07:31:26.180Z,25.63
2018-04-14T07:33:53.779Z,24.13
2018-04-14T07:36:21.424Z,20.40
2018-04-14T07:38:49.026Z,22.37
2018-04-14T07:41:16.622Z,27.23
2018-04-14T07:43:44.244Z,24.73
2018-04-14T07:46:11.966Z,19.10
2018-04-14T07:48:39.589Z,23.33
2018-04-14T07:51:07.187Z,18.97
2018-04-14T07:53:35.055Z,20.77
2018-04-14T07:56:02.673Z,18.90
2018-04-14T07:58:30.281Z,23.93
2018-04-14T08:00:58.180Z,16.90
2018-04-14T08:03:25.786Z,25.13
2018-04-14T08:05:53.416Z,16.90
2018-04-14T08:08:21.038Z,16.40
2018-04-14T08:10:48.694Z,19.43
2018-04-14T08:13:16.293Z,18.73
2018-04-14T08:15:43.895Z,15.90
2018-04-14T08:18:11.526Z,21.70
2018-04-14T08:20:39.131Z,20.50
2018-04-14T08:23:06.802Z,23.60
2018-04-14T08:25:34.398Z,19.77
2018-04-14T08:28:02.332Z,20.43
2018-04-14T08:30:29.926Z,17.30
2018-04-14T08:32:57.523Z,19.20
2018-04-14T08:35:25.163Z,15.57
2018-04-14T08:37:52.772Z,19.83
2018-04-14T08:40:20.414Z,14.87
2018-04-14T08:42:48.028Z,12.40
2018-04-14T08:45:15.615Z,18.27
2018-04-14T08:47:43.236Z,17.90
2018-04-14T08:50:10.838Z,20.10
2018-04-14T08:52:38.448Z,9.87
2018-04-14T08:55:06.046Z,17.90
2018-04-14T08:57:33.681Z,11.10
2018-04-14T09:00:01.281Z,18.23
2018-04-14T09:02:29.025Z,10.67
2018-04-14T09:04:56.655Z,10.03
2018-04-14T09:07:24.270Z,11.33
2018-04-14T09:09:51.890Z,20.57
2018-04-14T09:12:19.488Z,8.03
2018-04-14T09:14:47.107Z,12.80
2018-04-14T09:17:14.710Z,12.27
2018-04-14T09:19:42.341Z,9.77
2018-04-14T09:22:09.942Z,8.50
2018-04-14T09:24:37.535Z,7.77
2018-04-14T09:27:05.155Z,6.70
2018-04-14T09:29:32.755Z,7.60
2018-04-14T09:32:00.427Z,6.23
2018-04-14T09:34:28.040Z,13.77
2018-04-14T09:36:55.754Z,5.90
2018-04-14T09:39:23.350Z,6.97
2018-04-14T09:41:50.958Z,4.13
2018-04-14T09:44:18.587Z,4.97
2018-04-14T09:46:46.187Z,16.77
2018-04-14T09:49:13.801Z,4.10
2018-04-14T09:51:41.525Z,5.93
2018-04-14T09:54:09.116Z,4.70
2018-04-14T09:56:36.728Z,4.87
2018-04-14T09:59:04.323Z,5.80
2018-04-14T10:01:31.963Z,7.07
2018-04-14T10:03:59.551Z,6.30
2018-04-14T10:06:27.397Z,7.73
2018-04-14T10:08:54.986Z,13.00
2018-04-14T10:11:22.588Z,5.60
2018-04-14T10:13:50.218Z,5.30
2018-04-14T10:16:17.824Z,3.87
2018-04-14T10:18:45.459Z,11.70
2018-04-14T10:21:13.046Z,4.33
2018-04-14T10:23:41.026Z,4.27
2018-04-14T10:26:08.610Z,6.60
2018-04-14T10:28:36.224Z,3.90
2018-04-14T10:31:03.843Z,7.10
2018-04-14T10:33:31.438Z,4.70
2018-04-14T10:35:59.048Z,3.10
2018-04-14T10:38:26.638Z,3.20
2018-04-14T10:40:54.278Z,5.00
2018-04-14T10:43:21.867Z,4.67
2018-04-14T10:45:49.457Z,2.97
2018-04-14T10:48:17.252Z,3.90
2018-04-14T10:50:44.855Z,2.60
2018-04-14T10:53:12.676Z,4.73
2018-04-14T10:55:40.270Z,4.47
2018-04-14T10:58:07.871Z,3.50
2018-04-14T11:00:35.484Z,5.83
2018-04-14T11:03:03.074Z,4.07
2018-04-14T11:05:30.711Z,7.57
2018-04-14T11:07:58.323Z,1.77
2018-04-14T11:10:26.102Z,3.00
2018-04-14T11:12:53.726Z,2.67
2018-04-14T11:15:21.310Z,3.10
2018-04-14T11:17:48.994Z,2.03
2018-04-14T11:20:16.586Z,6.13
2018-04-14T11:22:44.410Z,2.20
2018-04-14T11:25:12.014Z,3.50
2018-04-14T11:27:39.614Z,2.20
2018-04-14T11:30:07.247Z,4.40
2018-04-14T11:32:34.830Z,2.50
2018-04-14T11:35:02.441Z,9.10
2018-04-14T11:37:30.041Z,1.93
2018-04-14T11:40:00.865Z,0.93
2018-04-14T11:42:28.568Z,4.00
2018-04-14T11:44:56.157Z,5.63
2018-04-14T11:47:23.793Z,1.60
2018-04-14T11:49:51.383Z,3.43
2018-04-14T11:52:18.991Z,2.40
2018-04-14T11:54:46.585Z,1.80
2018-04-14T11:57:14.469Z,2.10
2018-04-14T11:59:42.074Z,3.10
2018-04-14T12:02:09.657Z,1.90
2018-04-14T12:04:37.267Z,2.07
2018-04-14T12:07:04.857Z,1.43
2018-04-14T12:09:32.490Z,5.30
2018-04-14T12:12:00.081Z,6.20
2018-04-14T12:14:27.702Z,1.10
2018-04-14T12:16:55.294Z,1.93
2018-04-14T12:19:22.891Z,2.07
2018-04-14T12:21:50.503Z,6.67
2018-04-14T12:24:18.093Z,1.30
2018-04-14T12:26:45.702Z,1.33
2018-04-14T12:29:13.297Z,2.63
2018-04-14T12:31:40.930Z,3.40
2018-04-14T12:34:08.533Z,4.70
2018-04-14T12:36:36.116Z,1.77
2018-04-14T12:39:03.729Z,2.50
2018-04-14T12:41:31.321Z,0.60
2018-04-14T12:43:58.943Z,2.50
2018-04-14T12:46:26.539Z,2.57
2018-04-14T12:48:54.154Z,1.93
2018-04-14T12:51:21.778Z,2.73
2018-04-14T12:53:49.570Z,2.53
2018-04-14T12:56:17.160Z,1.50
2018-04-14T12:58:44.780Z,7.27
2018-04-14T13:01:12.395Z,1.27
2018-04-14T13:03:39.993Z,1.73
2018-04-14T13:06:07.683Z,0.80
2018-04-14T13:08:35.264Z,2.20
2018-04-14T13:11:03.008Z,2.03
2018-04-14T13:13:30.833Z,1.00
2018-04-14T13:15:58.418Z,2.30
2018-04-14T13:18:26.038Z,6.13
2018-04-14T13:20:53.626Z,3.03
2018-04-14T13:23:21.246Z,3.80
2018-04-14T13:25:48.840Z,1.43
2018-04-14T13:28:16.633Z,1.47
2018-04-14T13:30:44.222Z,1.50
2018-04-14T13:33:11.972Z,4.83
2018-04-14T13:35:39.586Z,1.23
2018-04-14T13:38:07.184Z,0.80
2018-04-14T13:40:34.798Z,1.00
2018-04-14T13:43:02.384Z,1.03
2018-04-14T13:45:33.154Z,3.10
2018-04-14T13:48:07.184Z,4.57
2018-04-14T13:50:38.625Z,2.20
2018-04-14T13:53:11.403Z,0.90
2018-04-14T13:55:42.409Z,3.37
2018-04-14T13:58:12.507Z,1.07
2018-04-14T14:00:43.362Z,0.90
2018-04-14T14:03:18.959Z,1.23
2018-04-14T14:05:56.394Z,1.20
2018-04-14T14:08:25.127Z,1.67
2018-04-14T14:10:52.738Z,2.50
2018-04-14T14:13:20.578Z,1.40
2018-04-14T14:15:48.343Z,2.70
2018-04-14T14:18:16.045Z,2.30
2018-04-14T14:20:43.859Z,9.77
2018-04-14T14:23:16.141Z,0.90
2018-04-14T14:25:48.771Z,1.80
2018-04-14T14:28:21.159Z,2.30
2018-04-14T14:30:51.191Z,2.20
2018-04-14T14:33:22.126Z,1.13
2018-04-14T14:36:00.446Z,3.47
2018-04-14T14:38:35.742Z,4.47
2018-04-14T14:41:10.419Z,1.53
2018-04-14T14:43:40.332Z,6.57
2018-04-14T14:46:09.634Z,2.70
2018-04-14T14:48:39.327Z,1.50
2018-04-14T14:51:08.240Z,4.07
2018-04-14T14:53:37.571Z,1.87
2018-04-14T14:56:05.459Z,3.93
2018-04-14T14:58:33.474Z,2.13
2018-04-14T15:01:01.644Z,1.70
2018-04-14T15:03:29.712Z,2.70
2018-04-14T15:05:57.725Z,2.97
2018-04-14T15:08:28.821Z,1.70
2018-04-14T15:10:57.117Z,1.30
2018-04-14T15:13:25.085Z,5.67
2018-04-14T15:15:53.048Z,1.47
2018-04-14T15:18:20.749Z,7.27
2018-04-14T15:20:48.379Z,3.03
2018-04-14T15:23:16.023Z,4.23
2018-04-14T15:25:43.663Z,4.67
2018-04-14T15:28:11.243Z,1.43
2018-04-14T15:30:47.174Z,2.20
2018-04-14T15:33:14.763Z,2.67
2018-04-14T15:35:42.629Z,6.47
2018-04-14T15:38:10.227Z,2.20
2018-04-14T15:40:37.823Z,4.73
2018-04-14T15:43:05.423Z,3.97
2018-04-14T15:45:33.015Z,1.50
2018-04-14T15:48:00.627Z,1.83
2018-04-14T15:50:28.223Z,2.77
2018-04-14T15:52:55.962Z,2.97
2018-04-14T15:55:23.561Z,1.93
2018-04-14T15:57:51.154Z,1.30
2018-04-14T16:00:18.788Z,2.17
2018-04-14T16:02:46.411Z,4.70
2018-04-14T16:05:14.026Z,2.03
2018-04-14T16:07:41.907Z,2.27
2018-04-14T16:10:09.706Z,4.87
2018-04-14T16:12:37.323Z,2.50
2018-04-14T16:15:04.924Z,2.87
2018-04-14T16:17:32.539Z,1.33
2018-04-14T16:20:00.138Z,5.30
2018-04-14T16:22:27.900Z,3.20
2018-04-14T16:24:55.493Z,1.27
2018-04-14T16:27:23.164Z,1.63
2018-04-14T16:29:50.749Z,1.90
2018-04-14T16:32:18.342Z,1.37
2018-04-14T16:34:46.017Z,1.40
2018-04-14T16:37:13.601Z,1.57
2018-04-14T16:39:41.678Z,1.40
2018-04-14T16:42:09.268Z,1.47
2018-04-14T16:44:36.930Z,2.73
2018-04-14T16:47:04.527Z,1.60
2018-04-14T16:49:32.115Z,1.53
2018-04-14T16:51:59.747Z,3.00
2018-04-14T16:54:27.427Z,6.57
2018-04-14T16:56:55.043Z,3.70
2018-04-14T16:59:22.630Z,3.93
2018-04-14T17:01:50.405Z,1.53
2018-04-14T17:04:18.012Z,3.13
2018-04-14T17:06:45.611Z,1.30
2018-04-14T17:09:13.232Z,2.83
2018-04-14T17:11:40.826Z,3.23
2018-04-14T17:14:08.442Z,6.30
2018-04-14T17:16:36.080Z,2.93
2018-04-14T17:19:04.054Z,1.33
2018-04-14T17:21:31.641Z,3.00
2018-04-14T17:23:59.229Z,1.57
2018-04-14T17:26:26.856Z,1.60
2018-04-14T17:28:54.458Z,4.30
2018-04-14T17:31:22.077Z,1.83
2018-04-14T17:33:49.686Z,2.50
2018-04-14T17:36:17.327Z,1.60
2018-04-14T17:38:44.919Z,8.87
2018-04-14T17:41:12.535Z,5.70
2018-04-14T17:43:40.272Z,1.60
2018-04-14T17:46:07.871Z,11.90
2018-04-14T17:48:35.497Z,3.77
2018-04-14T17:51:03.079Z,4.93
2018-04-14T17:53:30.702Z,3.23
2018-04-14T17:55:58.505Z,1.27
2018-04-14T17:58:26.102Z,2.60
2018-04-14T18:00:53.714Z,1.67
2018-04-14T18:03:21.388Z,1.40
2018-04-14T18:05:49.220Z,7.80
2018-04-14T18:08:16.893Z,1.80
2018-04-14T18:10:44.489Z,3.27
2018-04-14T18:13:12.110Z,4.10
2018-04-14T18:15:39.713Z,7.10
2018-04-14T18:18:07.337Z,7.17
2018-04-14T18:20:34.934Z,10.53
2018-04-14T18:23:02.555Z,8.17
2018-04-14T18:25:30.165Z,8.47
2018-04-14T18:27:57.764Z,10.10
2018-04-14T18:30:25.386Z,11.13
2018-04-14T18:32:52.978Z,9.43
2018-04-14T18:35:20.602Z,13.93
2018-04-14T18:37:48.370Z,10.17
2018-04-14T18:40:15.999Z,9.43
2018-04-14T18:42:43.586Z,9.60
2018-04-14T18:45:11.435Z,6.80
2018-04-14T18:47:39.065Z,5.30
2018-04-14T18:50:06.737Z,5.60
2018-04-14T18:52:34.292Z,3.10
2018-04-14T18:55:01.908Z,2.77
2018-04-14T18:57:29.521Z,4.20
2018-04-14T18:59:57.110Z,10.53
2018-04-14T19:02:25.032Z,4.73
2018-04-14T19:04:52.563Z,6.60
2018-04-14T19:07:20.151Z,5.70
2018-04-14T19:09:47.778Z,6.33
2018-04-14T19:12:15.552Z,10.70
2018-04-14T19:14:43.552Z,20.20
2018-04-14T19:17:11.347Z,6.03
2018-04-14T19:19:38.939Z,5.27
2018-04-14T19:22:06.546Z,4.43
2018-04-14T19:24:34.159Z,6.40
2018-04-14T19:27:01.780Z,16.70
2018-04-14T19:29:29.372Z,5.67
2018-04-14T19:31:57.167Z,5.40
2018-04-14T19:34:24.753Z,9.23
2018-04-14T19:36:52.358Z,7.60
2018-04-14T19:39:20.097Z,7.73
2018-04-14T19:41:47.695Z,4.73
2018-04-14T19:44:15.351Z,10.10
2018-04-14T19:46:43.008Z,7.63
2018-04-14T19:49:10.964Z,5.13
2018-04-14T19:51:38.559Z,8.40
2018-04-14T19:54:06.150Z,5.80
2018-04-14T19:56:33.768Z,4.70
2018-04-14T19:59:01.359Z,5.33
2018-04-14T20:01:28.975Z,4.00
2018-04-14T20:03:56.567Z,8.83
2018-04-14T20:06:24.396Z,5.07
2018-04-14T20:08:52.011Z,8.67
2018-04-14T20:11:19.651Z,8.10
2018-04-14T20:13:47.265Z,8.00
2018-04-14T20:16:14.861Z,14.80
2018-04-14T20:18:42.474Z,9.20
2018-04-14T20:21:10.075Z,13.80
2018-04-14T20:23:37.906Z,8.67
2018-04-14T20:26:05.508Z,15.30
2018-04-14T20:28:33.101Z,10.53
2018-04-14T20:31:00.722Z,17.33
2018-04-14T20:33:28.318Z,14.33
2018-04-14T20:35:55.931Z,14.67
2018-04-14T20:38:23.531Z,13.60
2018-04-14T20:40:51.166Z,18.43
2018-04-14T20:43:18.769Z,17.43
2018-04-14T20:45:46.363Z,12.80
2018-04-14T20:48:13.977Z,12.30
2018-04-14T20:50:41.576Z,11.20
2018-04-14T20:53:09.195Z,15.30
2018-04-14T20:55:36.797Z,11.20
2018-04-14T20:58:04.670Z,13.20
2018-04-14T21:00:32.271Z,27.77
2018-04-14T21:02:59.865Z,38.77
2018-04-14T21:05:27.490Z,29.43
2018-04-14T21:07:55.100Z,27.87
2018-04-14T21:10:22.752Z,22.67
2018-04-14T21:12:50.349Z,10.57
2018-04-14T21:15:18.018Z,12.63
2018-04-14T21:17:45.608Z,14.90
2018-04-14T21:20:13.982Z,11.00
2018-04-14T21:22:41.618Z,10.13
2018-04-14T21:25:09.223Z,11.03
2018-04-14T21:27:36.839Z,9.43
2018-04-14T21:30:04.492Z,7.80
2018-04-14T21:32:32.090Z,15.47
2018-04-14T21:34:59.712Z,10.83
2018-04-14T21:37:27.310Z,6.90
2018-04-14T21:39:55.044Z,10.00
2018-04-14T21:42:22.640Z,12.13
2018-04-14T21:44:50.261Z,9.50
2018-04-14T21:47:17.891Z,7.20
2018-04-14T21:49:45.688Z,9.20
2018-04-14T21:52:13.287Z,9.50
2018-04-14T21:54:40.896Z,12.67
2018-04-14T21:57:08.546Z,28.43
2018-04-14T21:59:36.151Z,15.67
2018-04-14T22:02:03.799Z,20.87
2018-04-14T22:04:31.404Z,11.73
2018-04-14T22:06:59.026Z,12.53
2018-04-14T22:09:26.648Z,28.70
2018-04-14T22:11:54.263Z,75.17
2018-04-14T22:14:32.803Z,35.77
2018-04-14T22:17:00.394Z,13.57
2018-04-14T22:19:28.670Z,14.93
2018-04-14T22:21:57.470Z,14.40
2018-04-14T22:24:25.117Z,8.80
2018-04-14T22:26:52.727Z,8.07
2018-04-14T22:29:20.321Z,7.63
2018-04-14T22:31:48.642Z,9.90
2018-04-14T22:34:16.235Z,9.33
2018-04-14T22:36:44.071Z,12.47
2018-04-14T22:39:11.844Z,10.20
2018-04-14T22:41:39.436Z,11.67
2018-04-14T22:44:07.053Z,9.30
2018-04-14T22:46:34.649Z,13.13
2018-04-14T22:49:02.267Z,11.43
2018-04-14T22:51:29.866Z,14.33
2018-04-14T22:53:57.733Z,7.10
2018-04-14T22:56:25.333Z,12.67
2018-04-14T22:58:52.926Z,8.33
2018-04-14T23:01:20.552Z,9.20
2018-04-14T23:03:48.142Z,7.40
2018-04-14T23:06:15.771Z,7.80
2018-04-14T23:08:43.373Z,9.83
2018-04-14T23:11:10.973Z,7.50
2018-04-14T23:13:38.587Z,8.53
2018-04-14T23:16:06.180Z,6.90
2018-04-14T23:18:33.818Z,6.73
2018-04-14T23:21:01.450Z,11.13
2018-04-14T23:23:29.058Z,6.53
2018-04-14T23:25:56.658Z,6.37
2018-04-14T23:28:24.294Z,14.33
2018-04-14T23:30:51.885Z,21.57
2018-04-14T23:33:19.465Z,8.60
2018-04-14T23:35:47.388Z,9.30
2018-04-14T23:38:14.980Z,9.33
2018-04-14T23:40:42.614Z,9.30
2018-04-14T23:43:10.204Z,7.37
2018-04-14T23:45:37.789Z,7.57
2018-04-14T23:48:05.405Z,13.93
2018-04-14T23:50:33.014Z,7.60
2018-04-14T23:53:00.627Z,7.13
2018-04-14T23:55:28.225Z,7.23
2018-04-14T23:57:55.838Z,8.67
